Marten — 5BNU3 — position and weather

sailwx.info

Track history (hours):
 
Tides and Currents Weather Stations Pressure Air Temp Water Temp Dewpoint Dewpoint Depression Visibility Wind Speed Wind Dir Waves Ship Positions

Marten

Last reported at 2016-Feb-09 15:23 UTC. Time now 2016-Feb-09 15:52 UTC.
Position N 54°02' E 013°46'.

Length 90 m; draft 3.9 m.

Type: Ship. MMSI: 212376000.

Date/timePositionNaut miles runAvg speedWind from/ knotsBaromVisibWave heightAir tempDewpointWater temp
2016-Feb-09 15:23N 54°02' E 013°46'0 0.1
2016-Feb-09 12:31N 54°02' E 013°46'15 0.7
2016-Feb-08 16:31N 54°14' E 014°00'1111.5
2016-Feb-08 15:33N 54°04' E 014°09'1110.5
2016-Feb-08 14:33N 53°55' E 014°17'8 7.8
2016-Feb-08 13:33N 53°48' E 014°21'1111.0
2016-Feb-08 12:33N 53°39' E 014°33'10 9.9
2016-Feb-08 11:34N 53°30' E 014°37'5 5.4
2016-Feb-08 10:33N 53°24' E 014°37'0 0.0
2016-Feb-08 09:25N 53°24' E 014°37'0 0.0
2016-Feb-08 08:16N 53°24' E 014°37'0 0.0
2016-Feb-08 07:16N 53°24' E 014°37'0 0.0
2016-Feb-08 06:22N 53°24' E 014°37'0 0.0
2016-Feb-08 05:28N 53°24' E 014°37'0 0.0
2016-Feb-08 04:28N 53°24' E 014°37'0 0.0
2016-Feb-08 02:31N 53°24' E 014°37'0 0.0
2016-Feb-08 01:25N 53°24' E 014°37'0 0.0
2016-Feb-08 00:31N 53°24' E 014°37'0 0.0
2016-Feb-07 23:31N 53°24' E 014°37'0 0.0
2016-Feb-07 22:31N 53°24' E 014°37'0 0.0
2016-Feb-07 20:31N 53°24' E 014°37'0 0.0
2016-Feb-07 19:31N 53°24' E 014°37'0 0.0
2016-Feb-07 18:31N 53°24' E 014°37'0 0.0
2016-Feb-07 17:31N 53°24' E 014°37'0 0.0
2016-Feb-07 16:31N 53°24' E 014°37'0 0.0
2016-Feb-07 15:31N 53°24' E 014°37'1 0.8
2016-Feb-07 14:33N 53°25' E 014°37'8 7.8
2016-Feb-07 13:33N 53°33' E 014°37'9 9.2
2016-Feb-07 12:33N 53°41' E 014°31'1010.4
2016-Feb-07 11:33N 53°49' E 014°20'8 7.8
2016-Feb-07 10:33N 53°57' E 014°16'9 9.1
2016-Feb-07 09:33N 54°06' E 014°13'10 9.5
2016-Feb-07 08:32N 54°15' E 014°08'11 9.6
2016-Feb-07 07:27N 54°22' E 013°56'23 9.9
2016-Feb-07 05:07N 54°43' E 013°37'1810.4
2016-Feb-07 03:21N 54°59' E 013°21'910.9
2016-Feb-07 02:32N 55°06' E 013°11'1010.5
2016-Feb-07 01:33N 55°12' E 012°58'1110.7
2016-Feb-07 00:33N 55°17' E 012°41'9 8.9
2016-Feb-06 23:33N 55°26' E 012°40'10 9.8
2016-Feb-06 22:33N 55°36' E 012°42'9 9.4
2016-Feb-06 21:33N 55°45' E 012°41'10 9.6
2016-Feb-06 20:33N 55°55' E 012°38'9 8.7
2016-Feb-06 19:33N 56°04' E 012°37'1111.1
2016-Feb-06 18:33N 56°10' E 012°22'3010.1
2016-Feb-06 15:33N 56°37' E 011°55'1310.6
2016-Feb-06 14:18N 56°50' E 011°49'1910.6
2016-Feb-06 12:32N 57°07' E 011°37'1010.0
2016-Feb-06 11:33N 57°16' E 011°31'10 9.9
2016-Feb-06 10:33N 57°26' E 011°24'10 9.6
2016-Feb-06 09:33N 57°33' E 011°12'10 9.7
2016-Feb-06 08:31N 57°40' E 010°59'9 9.0
2016-Feb-06 07:33N 57°46' E 010°47'  
2016-Feb-03 17:27N 55°08' W 001°31'0 0.0
2016-Feb-03 16:33N 55°08' W 001°31'0 0.0
2016-Feb-03 15:33N 55°08' W 001°31'2 2.1
2016-Feb-03 14:33N 55°06' W 001°29'8 8.3
2016-Feb-03 13:33N 55°01' W 001°18'40 8.0
2016-Feb-03 08:33N 54°33' W 000°28'8 7.7
2016-Feb-03 07:33N 54°27' W 000°20'8 7.7
2016-Feb-03 06:33N 54°21' W 000°12'5 4.7
2016-Feb-03 05:33N 54°17' W 000°08'6 6.2
2016-Feb-03 04:34N 54°12' W 000°02'7 7.1
2016-Feb-03 03:34N 54°06' E 000°04'7 7.2
2016-Feb-03 02:33N 53°60' E 000°11'63 6.9
2016-Feb-02 17:23N 53°12' E 001°21'5 6.5
2016-Feb-02 16:34N 53°08' E 001°28'7 6.6
2016-Feb-02 15:33N 53°04' E 001°37'6 6.4
2016-Feb-02 14:33N 53°00' E 001°45'6 6.3
2016-Feb-02 13:34N 52°56' E 001°53'27 6.7
2016-Feb-02 09:33N 52°31' E 002°07'8 7.4
2016-Feb-02 08:32N 52°23' E 002°09'7 7.4
2016-Feb-02 07:34N 52°16' E 002°10'7 7.4
2016-Feb-02 06:33N 52°09' E 002°11'26 8.5
2016-Feb-02 03:32N 51°44' E 002°05'8 8.6
2016-Feb-02 02:34N 51°36' E 001°59'8 7.8
2016-Feb-02 01:33N 51°28' E 001°57'7 7.2
2016-Feb-02 00:34N 51°21' E 002°00'9 9.0
2016-Feb-01 23:34N 51°15' E 001°51'10 9.5
2016-Feb-01 22:33N 51°07' E 001°41'10 9.6
2016-Feb-01 21:33N 50°60' E 001°31'9 8.5
2016-Feb-01 20:33N 50°52' E 001°26'  
Track history (hours):
 
Tides and Currents Weather Stations Pressure Air Temp Water Temp Dewpoint Dewpoint Depression Visibility Wind Speed Wind Dir Waves Ship Positions

Marten

Last reported at 2016-Feb-09 15:23 UTC. Time now 2016-Feb-09 15:52 UTC.
Position N 54°02' E 013°46'.

Length 90 m; draft 3.9 m.

Type: Ship. MMSI: 212376000.

Date/timePositionNaut miles runAvg speedWind from/ knotsBaromVisibWave heightAir tempDewpointWater temp
2016-Feb-09 15:23N 54°02' E 013°46'0 0.1
2016-Feb-09 12:31N 54°02' E 013°46'15 0.7
2016-Feb-08 16:31N 54°14' E 014°00'1111.5
2016-Feb-08 15:33N 54°04' E 014°09'1110.5
2016-Feb-08 14:33N 53°55' E 014°17'8 7.8
2016-Feb-08 13:33N 53°48' E 014°21'1111.0
2016-Feb-08 12:33N 53°39' E 014°33'10 9.9
2016-Feb-08 11:34N 53°30' E 014°37'5 5.4
2016-Feb-08 10:33N 53°24' E 014°37'0 0.0
2016-Feb-08 09:25N 53°24' E 014°37'0 0.0
2016-Feb-08 08:16N 53°24' E 014°37'0 0.0
2016-Feb-08 07:16N 53°24' E 014°37'0 0.0
2016-Feb-08 06:22N 53°24' E 014°37'0 0.0
2016-Feb-08 05:28N 53°24' E 014°37'0 0.0
2016-Feb-08 04:28N 53°24' E 014°37'0 0.0
2016-Feb-08 02:31N 53°24' E 014°37'0 0.0
2016-Feb-08 01:25N 53°24' E 014°37'0 0.0
2016-Feb-08 00:31N 53°24' E 014°37'0 0.0
2016-Feb-07 23:31N 53°24' E 014°37'0 0.0
2016-Feb-07 22:31N 53°24' E 014°37'0 0.0
2016-Feb-07 20:31N 53°24' E 014°37'0 0.0
2016-Feb-07 19:31N 53°24' E 014°37'0 0.0
2016-Feb-07 18:31N 53°24' E 014°37'0 0.0
2016-Feb-07 17:31N 53°24' E 014°37'0 0.0
2016-Feb-07 16:31N 53°24' E 014°37'0 0.0
2016-Feb-07 15:31N 53°24' E 014°37'1 0.8
2016-Feb-07 14:33N 53°25' E 014°37'8 7.8
2016-Feb-07 13:33N 53°33' E 014°37'9 9.2
2016-Feb-07 12:33N 53°41' E 014°31'1010.4
2016-Feb-07 11:33N 53°49' E 014°20'8 7.8
2016-Feb-07 10:33N 53°57' E 014°16'9 9.1
2016-Feb-07 09:33N 54°06' E 014°13'10 9.5
2016-Feb-07 08:32N 54°15' E 014°08'11 9.6
2016-Feb-07 07:27N 54°22' E 013°56'23 9.9
2016-Feb-07 05:07N 54°43' E 013°37'1810.4
2016-Feb-07 03:21N 54°59' E 013°21'910.9
2016-Feb-07 02:32N 55°06' E 013°11'1010.5
2016-Feb-07 01:33N 55°12' E 012°58'1110.7
2016-Feb-07 00:33N 55°17' E 012°41'9 8.9
2016-Feb-06 23:33N 55°26' E 012°40'10 9.8
2016-Feb-06 22:33N 55°36' E 012°42'9 9.4
2016-Feb-06 21:33N 55°45' E 012°41'10 9.6
2016-Feb-06 20:33N 55°55' E 012°38'9 8.7
2016-Feb-06 19:33N 56°04' E 012°37'1111.1
2016-Feb-06 18:33N 56°10' E 012°22'3010.1
2016-Feb-06 15:33N 56°37' E 011°55'1310.6
2016-Feb-06 14:18N 56°50' E 011°49'1910.6
2016-Feb-06 12:32N 57°07' E 011°37'1010.0
2016-Feb-06 11:33N 57°16' E 011°31'10 9.9
2016-Feb-06 10:33N 57°26' E 011°24'10 9.6
2016-Feb-06 09:33N 57°33' E 011°12'10 9.7
2016-Feb-06 08:31N 57°40' E 010°59'9 9.0
2016-Feb-06 07:33N 57°46' E 010°47'  
2016-Feb-03 17:27N 55°08' W 001°31'0 0.0
2016-Feb-03 16:33N 55°08' W 001°31'0 0.0
2016-Feb-03 15:33N 55°08' W 001°31'2 2.1
2016-Feb-03 14:33N 55°06' W 001°29'8 8.3
2016-Feb-03 13:33N 55°01' W 001°18'40 8.0
2016-Feb-03 08:33N 54°33' W 000°28'8 7.7
2016-Feb-03 07:33N 54°27' W 000°20'8 7.7
2016-Feb-03 06:33N 54°21' W 000°12'5 4.7
2016-Feb-03 05:33N 54°17' W 000°08'6 6.2
2016-Feb-03 04:34N 54°12' W 000°02'7 7.1
2016-Feb-03 03:34N 54°06' E 000°04'7 7.2
2016-Feb-03 02:33N 53°60' E 000°11'63 6.9
2016-Feb-02 17:23N 53°12' E 001°21'5 6.5
2016-Feb-02 16:34N 53°08' E 001°28'7 6.6
2016-Feb-02 15:33N 53°04' E 001°37'6 6.4
2016-Feb-02 14:33N 53°00' E 001°45'6 6.3
2016-Feb-02 13:34N 52°56' E 001°53'27 6.7
2016-Feb-02 09:33N 52°31' E 002°07'8 7.4
2016-Feb-02 08:32N 52°23' E 002°09'7 7.4
2016-Feb-02 07:34N 52°16' E 002°10'7 7.4
2016-Feb-02 06:33N 52°09' E 002°11'26 8.5
2016-Feb-02 03:32N 51°44' E 002°05'8 8.6
2016-Feb-02 02:34N 51°36' E 001°59'8 7.8
2016-Feb-02 01:33N 51°28' E 001°57'7 7.2
2016-Feb-02 00:34N 51°21' E 002°00'9 9.0
2016-Feb-01 23:34N 51°15' E 001°51'10 9.5
2016-Feb-01 22:33N 51°07' E 001°41'10 9.6
2016-Feb-01 21:33N 50°60' E 001°31'9 8.5
2016-Feb-01 20:33N 50°52' E 001°26'  

Dump ship's entire track history